createdAt,value
2018-05-13T00:00:01.725Z,10.57
2018-05-13T00:02:29.905Z,9.20
2018-05-13T00:04:58.200Z,8.65
2018-05-13T00:07:26.305Z,11.93
2018-05-13T00:09:54.592Z,14.23
2018-05-13T00:12:22.787Z,10.57
2018-05-13T00:14:50.985Z,11.18
2018-05-13T00:17:19.184Z,11.77
2018-05-13T00:19:47.368Z,14.82
2018-05-13T00:22:15.566Z,12.73
2018-05-13T00:24:43.770Z,11.63
2018-05-13T00:27:11.947Z,10.52
2018-05-13T00:29:40.244Z,9.43
2018-05-13T00:32:08.341Z,10.32
2018-05-13T00:34:36.646Z,10.27
2018-05-13T00:37:04.759Z,12.68
2018-05-13T00:39:33.123Z,10.10
2018-05-13T00:42:01.228Z,11.15
2018-05-13T00:44:29.529Z,11.15
2018-05-13T00:46:57.713Z,12.63
2018-05-13T00:49:26.011Z,9.68
2018-05-13T00:51:54.205Z,10.10
2018-05-13T00:54:22.392Z,9.27
2018-05-13T00:56:50.500Z,14.05
2018-05-13T00:59:18.687Z,10.73
2018-05-13T01:01:46.772Z,12.75
2018-05-13T01:04:14.965Z,10.20
2018-05-13T01:06:43.381Z,9.07
2018-05-13T01:09:11.568Z,11.27
2018-05-13T01:11:39.769Z,12.23
2018-05-13T01:14:08.065Z,10.65
2018-05-13T01:16:36.347Z,11.88
2018-05-13T01:19:05.472Z,9.68
2018-05-13T01:21:33.765Z,11.10
2018-05-13T01:24:02.072Z,14.45
2018-05-13T01:26:30.363Z,9.52
2018-05-13T01:28:58.653Z,9.77
2018-05-13T01:31:26.856Z,8.65
2018-05-13T01:33:55.047Z,9.55
2018-05-13T01:36:23.246Z,8.77
2018-05-13T01:38:51.423Z,13.07
2018-05-13T01:41:19.632Z,10.07
2018-05-13T01:43:47.935Z,9.60
2018-05-13T01:46:16.123Z,10.75
2018-05-13T01:48:44.326Z,9.70
2018-05-13T01:51:12.510Z,9.43
2018-05-13T01:53:40.707Z,9.88
2018-05-13T01:56:09.002Z,11.20
2018-05-13T01:58:37.223Z,11.38
2018-05-13T02:01:05.495Z,9.55
2018-05-13T02:03:33.590Z,9.48
2018-05-13T02:06:01.885Z,9.85
2018-05-13T02:08:30.170Z,12.00
2018-05-13T02:10:58.481Z,14.38
2018-05-13T02:13:26.572Z,11.15
2018-05-13T02:15:54.760Z,12.40
2018-05-13T02:18:22.966Z,12.90
2018-05-13T02:20:51.140Z,14.57
2018-05-13T02:23:19.247Z,14.95
2018-05-13T02:25:47.431Z,15.48
2018-05-13T02:28:15.622Z,16.33
2018-05-13T02:30:43.833Z,13.75
2018-05-13T02:33:12.011Z,12.75
2018-05-13T02:35:40.314Z,15.48
2018-05-13T02:38:08.613Z,15.82
2018-05-13T02:40:36.926Z,12.75
2018-05-13T02:43:05.065Z,16.33
2018-05-13T02:45:33.405Z,12.25
2018-05-13T02:48:01.705Z,12.35
2018-05-13T02:50:29.992Z,10.75
2018-05-13T02:52:58.196Z,13.90
2018-05-13T02:55:26.479Z,10.93
2018-05-13T02:57:54.581Z,14.10
2018-05-13T03:00:22.872Z,13.35
2018-05-13T03:02:50.966Z,16.55
2018-05-13T03:05:19.161Z,15.30
2018-05-13T03:07:47.358Z,14.65
2018-05-13T03:10:15.447Z,17.10
2018-05-13T03:12:43.536Z,15.00
2018-05-13T03:15:11.827Z,17.40
2018-05-13T03:17:40.123Z,15.80
2018-05-13T03:20:08.223Z,20.55
2018-05-13T03:22:36.527Z,15.00
2018-05-13T03:25:04.609Z,16.42
2018-05-13T03:27:32.902Z,16.25
2018-05-13T03:30:01.105Z,15.10
2018-05-13T03:32:29.303Z,16.50
2018-05-13T03:34:57.493Z,16.50
2018-05-13T03:37:25.677Z,16.08
2018-05-13T03:39:53.786Z,17.85
2018-05-13T03:42:22.171Z,12.60
2018-05-13T03:44:50.272Z,17.90
2018-05-13T03:47:18.464Z,16.85
2018-05-13T03:49:46.549Z,20.25
2018-05-13T03:52:14.755Z,14.80
2018-05-13T03:54:42.844Z,16.80
2018-05-13T03:57:11.145Z,20.10
2018-05-13T03:59:39.529Z,20.52
2018-05-13T04:02:07.928Z,17.85
2018-05-13T04:04:36.024Z,18.70
2018-05-13T04:07:04.182Z,17.08
2018-05-13T04:09:32.304Z,14.27
2018-05-13T04:12:00.513Z,19.70
2018-05-13T04:14:28.661Z,12.02
2018-05-13T04:16:56.899Z,14.18
2018-05-13T04:19:25.088Z,14.02
2018-05-13T04:21:53.294Z,15.80
2018-05-13T04:24:21.379Z,14.10
2018-05-13T04:26:49.578Z,17.73
2018-05-13T04:29:17.667Z,14.13
2018-05-13T04:31:45.864Z,16.40
2018-05-13T04:34:14.162Z,14.40
2018-05-13T04:36:42.361Z,14.65
2018-05-13T04:39:10.439Z,13.18
2018-05-13T04:41:38.746Z,13.43
2018-05-13T04:44:07.042Z,21.08
2018-05-13T04:46:35.437Z,13.18
2018-05-13T04:49:03.731Z,14.02
2018-05-13T04:51:31.788Z,13.88
2018-05-13T04:54:00.025Z,16.20
2018-05-13T04:56:28.207Z,13.82
2018-05-13T04:58:56.306Z,13.52
2018-05-13T05:01:24.502Z,11.80
2018-05-13T05:03:52.683Z,14.32
2018-05-13T05:06:20.888Z,14.23
2018-05-13T05:08:48.984Z,11.35
2018-05-13T05:11:17.271Z,14.10
2018-05-13T05:13:45.368Z,14.70
2018-05-13T05:16:13.666Z,18.17
2018-05-13T05:18:41.747Z,13.77
2018-05-13T05:21:09.944Z,13.98
2018-05-13T05:23:38.148Z,13.82
2018-05-13T05:26:06.446Z,12.43
2018-05-13T05:28:34.541Z,13.45
2018-05-13T05:31:03.789Z,16.33
2018-05-13T05:33:31.797Z,14.20
2018-05-13T05:35:59.942Z,16.23
2018-05-13T05:38:28.130Z,14.07
2018-05-13T05:40:56.244Z,15.40
2018-05-13T05:43:24.525Z,15.50
2018-05-13T05:45:52.600Z,11.00
2018-05-13T05:48:20.902Z,12.57
2018-05-13T05:50:48.904Z,12.55
2018-05-13T05:53:17.200Z,12.88
2018-05-13T05:55:45.481Z,12.98
2018-05-13T05:58:13.884Z,13.73
2018-05-13T06:00:42.180Z,12.93
2018-05-13T06:03:10.498Z,13.48
2018-05-13T06:05:38.685Z,11.98
2018-05-13T06:08:07.072Z,12.65
2018-05-13T06:10:35.477Z,12.50
2018-05-13T06:13:03.669Z,14.23
2018-05-13T06:15:31.654Z,13.45
2018-05-13T06:17:59.847Z,14.77
2018-05-13T06:20:27.956Z,11.88
2018-05-13T06:22:56.140Z,13.98
2018-05-13T06:25:24.338Z,11.48
2018-05-13T06:27:52.523Z,11.75
2018-05-13T06:30:20.720Z,14.60
2018-05-13T06:32:49.020Z,12.37
2018-05-13T06:35:17.206Z,16.87
2018-05-13T06:37:45.611Z,11.57
2018-05-13T06:40:13.697Z,11.27
2018-05-13T06:42:42.005Z,12.07
2018-05-13T06:45:10.207Z,11.50
2018-05-13T06:47:38.486Z,9.80
2018-05-13T06:50:06.584Z,16.90
2018-05-13T06:52:34.986Z,11.85
2018-05-13T06:55:03.289Z,13.45
2018-05-13T06:57:31.406Z,15.05
2018-05-13T06:59:59.561Z,11.35
2018-05-13T07:02:27.765Z,15.02
2018-05-13T07:04:56.048Z,12.10
2018-05-13T07:07:24.345Z,13.18
2018-05-13T07:09:52.644Z,12.88
2018-05-13T07:12:20.841Z,15.23
2018-05-13T07:14:49.055Z,13.25
2018-05-13T07:17:17.226Z,12.48
2018-05-13T07:19:45.435Z,11.88
2018-05-13T07:22:14.644Z,10.35
2018-05-13T07:24:42.847Z,16.90
2018-05-13T07:27:10.926Z,10.63
2018-05-13T07:29:39.310Z,11.52
2018-05-13T07:32:07.648Z,12.77
2018-05-13T07:34:36.221Z,10.85
2018-05-13T07:37:04.134Z,11.30
2018-05-13T07:39:32.307Z,11.27
2018-05-13T07:42:00.411Z,10.45
2018-05-13T07:44:28.591Z,11.30
2018-05-13T07:46:56.697Z,11.30
2018-05-13T07:49:24.885Z,15.73
2018-05-13T07:51:52.975Z,9.45
2018-05-13T07:54:21.168Z,10.98
2018-05-13T07:56:49.266Z,10.25
2018-05-13T07:59:17.469Z,8.57
2018-05-13T08:01:45.661Z,8.50
2018-05-13T08:04:13.971Z,8.30
2018-05-13T08:06:42.246Z,9.40
2018-05-13T08:09:10.643Z,7.43
2018-05-13T08:11:39.156Z,8.97
2018-05-13T08:14:07.486Z,8.20
2018-05-13T08:16:35.747Z,7.20
2018-05-13T08:19:03.872Z,7.70
2018-05-13T08:21:31.806Z,8.03
2018-05-13T08:24:00.025Z,13.47
2018-05-13T08:26:28.205Z,7.37
2018-05-13T08:28:56.407Z,7.73
2018-05-13T08:31:24.491Z,8.00
2018-05-13T08:33:52.686Z,7.77
2018-05-13T08:36:20.882Z,9.50
2018-05-13T08:38:49.185Z,8.30
2018-05-13T08:41:17.575Z,9.67
2018-05-13T08:43:45.876Z,9.53
2018-05-13T08:46:14.181Z,8.97
2018-05-13T08:48:42.564Z,8.97
2018-05-13T08:51:10.671Z,9.70
2018-05-13T08:53:39.065Z,9.83
2018-05-13T08:56:07.366Z,8.57
2018-05-13T08:58:35.566Z,9.30
2018-05-13T09:01:03.665Z,10.73
2018-05-13T09:03:31.752Z,9.10
2018-05-13T09:05:59.930Z,10.80
2018-05-13T09:08:28.162Z,10.07
2018-05-13T09:10:56.428Z,14.17
2018-05-13T09:13:24.612Z,8.40
2018-05-13T09:15:52.710Z,9.77
2018-05-13T09:18:20.910Z,9.43
2018-05-13T09:20:49.201Z,8.57
2018-05-13T09:23:17.388Z,9.60
2018-05-13T09:25:45.701Z,7.67
2018-05-13T09:28:13.995Z,9.50
2018-05-13T09:30:42.292Z,8.17
2018-05-13T09:33:10.483Z,9.73
2018-05-13T09:35:38.573Z,9.47
2018-05-13T09:38:06.764Z,11.00
2018-05-13T09:40:35.991Z,8.70
2018-05-13T09:43:04.132Z,9.43
2018-05-13T09:45:32.363Z,8.07
2018-05-13T09:48:00.569Z,7.70
2018-05-13T09:50:28.759Z,7.57
2018-05-13T09:52:56.951Z,8.30
2018-05-13T09:55:25.156Z,8.63
2018-05-13T09:57:53.350Z,10.57
2018-05-13T10:00:21.650Z,8.30
2018-05-13T10:02:49.943Z,8.80
2018-05-13T10:05:18.236Z,8.10
2018-05-13T10:07:46.320Z,8.47
2018-05-13T10:10:14.527Z,9.30
2018-05-13T10:12:42.712Z,10.23
2018-05-13T10:15:10.910Z,9.03
2018-05-13T10:17:39.115Z,8.00
2018-05-13T10:20:07.308Z,9.63
2018-05-13T10:22:35.501Z,8.83
2018-05-13T10:25:03.691Z,8.23
2018-05-13T10:27:31.643Z,11.10
2018-05-13T10:29:59.885Z,8.10
2018-05-13T10:32:27.965Z,8.40
2018-05-13T10:34:56.161Z,10.33
2018-05-13T10:37:24.961Z,8.97
2018-05-13T10:39:53.260Z,12.30
2018-05-13T10:42:21.599Z,12.67
2018-05-13T10:44:49.866Z,8.53
2018-05-13T10:47:18.161Z,8.67
2018-05-13T10:49:46.449Z,16.60
2018-05-13T10:52:14.648Z,10.47
2018-05-13T10:54:43.358Z,13.50
2018-05-13T10:57:11.545Z,9.27
2018-05-13T10:59:39.736Z,8.90
2018-05-13T11:02:07.924Z,10.30
2018-05-13T11:04:36.120Z,9.30
2018-05-13T11:07:04.124Z,10.73
2018-05-13T11:09:32.212Z,13.40
2018-05-13T11:12:00.308Z,9.60
2018-05-13T11:14:28.504Z,9.73
2018-05-13T11:16:56.691Z,7.37
2018-05-13T11:19:24.883Z,7.60
2018-05-13T11:21:53.184Z,7.63
2018-05-13T11:24:21.375Z,8.60
2018-05-13T11:26:49.676Z,9.60
2018-05-13T11:29:17.965Z,7.70
2018-05-13T11:31:46.166Z,7.53
2018-05-13T11:34:14.365Z,7.07
2018-05-13T11:36:42.447Z,8.80
2018-05-13T11:39:10.637Z,6.23
2018-05-13T11:41:38.747Z,11.30
2018-05-13T11:44:06.934Z,8.17
2018-05-13T11:46:35.149Z,9.03
2018-05-13T11:49:03.332Z,7.20
2018-05-13T11:51:31.327Z,7.80
2018-05-13T11:53:59.499Z,7.20
2018-05-13T11:56:27.748Z,8.13
2018-05-13T11:58:56.100Z,7.00
2018-05-13T12:01:24.395Z,8.20
2018-05-13T12:03:52.705Z,7.33
2018-05-13T12:06:20.990Z,7.27
2018-05-13T12:08:49.185Z,7.17
2018-05-13T12:11:17.483Z,6.93
2018-05-13T12:13:45.773Z,6.60
2018-05-13T12:16:13.964Z,6.97
2018-05-13T12:18:42.078Z,6.20
2018-05-13T12:21:10.300Z,8.63
2018-05-13T12:23:38.566Z,7.60
2018-05-13T12:26:06.740Z,6.83
2018-05-13T12:28:34.845Z,8.93
2018-05-13T12:31:03.031Z,5.87
2018-05-13T12:33:30.954Z,6.70
2018-05-13T12:35:59.113Z,10.13
2018-05-13T12:38:27.213Z,6.80
2018-05-13T12:40:55.397Z,7.00
2018-05-13T12:43:23.489Z,6.70
2018-05-13T12:45:51.585Z,7.37
2018-05-13T12:48:19.890Z,7.50
2018-05-13T12:50:47.988Z,6.37
2018-05-13T12:53:16.067Z,6.60
2018-05-13T12:55:44.268Z,5.80
2018-05-13T12:58:12.466Z,8.13
2018-05-13T13:00:40.643Z,7.50
2018-05-13T13:03:08.744Z,9.20
2018-05-13T13:05:36.938Z,8.30
2018-05-13T13:08:05.031Z,6.83
2018-05-13T13:10:33.119Z,5.90
2018-05-13T13:13:01.155Z,5.70
2018-05-13T13:15:29.403Z,5.70
2018-05-13T13:17:57.620Z,5.83
2018-05-13T13:20:25.827Z,5.77
2018-05-13T13:22:54.103Z,13.20
2018-05-13T13:25:22.587Z,4.43
2018-05-13T13:27:50.794Z,4.07
2018-05-13T13:30:19.439Z,7.93
2018-05-13T13:32:47.693Z,3.90
2018-05-13T13:35:15.789Z,3.67
2018-05-13T13:37:43.883Z,6.00
2018-05-13T13:40:12.073Z,4.67
2018-05-13T13:42:40.166Z,4.50
2018-05-13T13:45:08.262Z,3.80
2018-05-13T13:47:36.440Z,3.43
2018-05-13T13:50:04.645Z,5.10
2018-05-13T13:52:32.942Z,5.93
2018-05-13T13:55:01.025Z,2.90
2018-05-13T13:57:29.227Z,3.43
2018-05-13T13:59:57.523Z,3.47
2018-05-13T14:02:25.613Z,6.27
2018-05-13T14:04:53.708Z,2.97
2018-05-13T14:07:22.004Z,3.93
2018-05-13T14:09:50.300Z,3.40
2018-05-13T14:12:18.430Z,3.67
2018-05-13T14:14:46.590Z,6.50
2018-05-13T14:17:14.888Z,3.23
2018-05-13T14:19:42.982Z,4.50
2018-05-13T14:22:11.166Z,3.50
2018-05-13T14:24:39.473Z,2.47
2018-05-13T14:27:07.563Z,4.40
2018-05-13T14:29:35.748Z,3.07
2018-05-13T14:32:03.832Z,4.20
2018-05-13T14:34:32.046Z,2.93
2018-05-13T14:37:00.428Z,3.27
2018-05-13T14:39:28.837Z,3.23
2018-05-13T14:41:57.036Z,5.27
2018-05-13T14:44:25.238Z,3.30
2018-05-13T14:46:53.621Z,4.23
2018-05-13T14:49:21.916Z,3.20
2018-05-13T14:51:50.012Z,3.20
2018-05-13T14:54:18.211Z,6.53
2018-05-13T14:56:46.398Z,2.93
2018-05-13T14:59:14.500Z,4.00
2018-05-13T15:01:42.685Z,3.97
2018-05-13T15:04:10.872Z,4.40
2018-05-13T15:06:38.973Z,5.50
2018-05-13T15:09:07.067Z,7.00
2018-05-13T15:11:35.352Z,3.90
2018-05-13T15:14:03.461Z,5.50
2018-05-13T15:16:31.847Z,4.10
2018-05-13T15:19:00.053Z,3.73
2018-05-13T15:21:28.351Z,5.40
2018-05-13T15:23:56.545Z,5.27
2018-05-13T15:26:24.640Z,4.63
2018-05-13T15:28:53.317Z,4.83
2018-05-13T15:31:21.428Z,5.33
2018-05-13T15:33:49.525Z,5.50
2018-05-13T15:36:17.621Z,5.00
2018-05-13T15:38:45.803Z,8.97
2018-05-13T15:41:14.000Z,7.00
2018-05-13T15:43:42.083Z,4.40
2018-05-13T15:46:10.291Z,4.87
2018-05-13T15:48:38.391Z,5.23
2018-05-13T15:51:06.597Z,10.20
2018-05-13T15:53:34.764Z,4.80
2018-05-13T15:56:03.071Z,5.00
2018-05-13T15:58:31.155Z,5.20
2018-05-13T16:00:59.466Z,4.47
2018-05-13T16:03:27.954Z,8.73
2018-05-13T16:05:56.248Z,4.30
2018-05-13T16:08:24.589Z,5.10
2018-05-13T16:10:52.701Z,5.10
2018-05-13T16:13:20.838Z,4.97
2018-05-13T16:15:48.937Z,5.77
2018-05-13T16:18:17.017Z,5.30
2018-05-13T16:20:45.510Z,4.90
2018-05-13T16:23:13.713Z,5.73
2018-05-13T16:25:41.816Z,4.73
2018-05-13T16:28:10.813Z,4.80
2018-05-13T16:30:39.213Z,4.70
2018-05-13T16:33:07.630Z,4.27
2018-05-13T16:35:35.808Z,5.07
2018-05-13T16:38:04.003Z,4.30
2018-05-13T16:40:32.095Z,4.57
2018-05-13T16:43:00.289Z,5.07
2018-05-13T16:45:28.389Z,5.67
2018-05-13T16:47:56.687Z,5.37
2018-05-13T16:50:25.177Z,4.70
2018-05-13T16:52:53.474Z,4.33
2018-05-13T16:55:21.679Z,4.13
2018-05-13T16:57:49.869Z,4.27
2018-05-13T17:00:18.066Z,3.73
2018-05-13T17:02:46.473Z,4.30
2018-05-13T17:05:14.550Z,5.27
2018-05-13T17:07:42.747Z,3.87
2018-05-13T17:10:10.943Z,3.90
2018-05-13T17:12:39.144Z,3.10
2018-05-13T17:15:07.423Z,4.00
2018-05-13T17:17:35.525Z,3.90
2018-05-13T17:20:03.632Z,3.90
2018-05-13T17:22:31.922Z,3.43
2018-05-13T17:25:00.014Z,3.63
2018-05-13T17:27:28.213Z,6.13
2018-05-13T17:29:56.524Z,3.03
2018-05-13T17:32:24.638Z,2.90
2018-05-13T17:34:52.595Z,3.33
2018-05-13T17:37:20.797Z,2.60
2018-05-13T17:39:48.855Z,3.40
2018-05-13T17:42:16.954Z,2.87
2018-05-13T17:44:45.055Z,2.67
2018-05-13T17:47:13.238Z,2.53
2018-05-13T17:49:41.340Z,3.67
2018-05-13T17:52:09.630Z,2.50
2018-05-13T17:54:37.809Z,2.53
2018-05-13T17:57:05.910Z,2.73
2018-05-13T17:59:34.929Z,2.12
2018-05-13T18:02:03.121Z,2.62
2018-05-13T18:04:31.218Z,2.67
2018-05-13T18:06:59.610Z,2.13
2018-05-13T18:09:27.713Z,2.05
2018-05-13T18:11:55.892Z,2.50
2018-05-13T18:14:23.993Z,3.23
2018-05-13T18:16:52.091Z,2.53
2018-05-13T18:19:20.191Z,3.40
2018-05-13T18:21:48.471Z,2.97
2018-05-13T18:24:16.564Z,4.70
2018-05-13T18:26:44.774Z,3.47
2018-05-13T18:29:12.952Z,4.07
2018-05-13T18:31:42.371Z,3.25
2018-05-13T18:34:10.472Z,2.80
2018-05-13T18:36:38.767Z,4.03
2018-05-13T18:39:07.062Z,3.08
2018-05-13T18:41:35.168Z,3.03
2018-05-13T18:44:03.548Z,2.87
2018-05-13T18:46:31.748Z,3.15
2018-05-13T18:48:59.934Z,2.78
2018-05-13T18:51:28.033Z,2.72
2018-05-13T18:53:56.129Z,4.07
2018-05-13T18:56:24.229Z,4.87
2018-05-13T18:58:52.380Z,3.60
2018-05-13T19:01:20.516Z,3.55
2018-05-13T19:03:48.708Z,3.87
2018-05-13T19:06:16.888Z,6.37
2018-05-13T19:08:45.095Z,4.53
2018-05-13T19:11:13.190Z,4.90
2018-05-13T19:13:41.370Z,3.87
2018-05-13T19:16:09.471Z,4.20
2018-05-13T19:18:37.671Z,4.45
2018-05-13T19:21:05.855Z,4.03
2018-05-13T19:23:34.050Z,4.00
2018-05-13T19:26:02.149Z,4.20
2018-05-13T19:28:30.328Z,6.43
2018-05-13T19:30:58.499Z,8.35
2018-05-13T19:33:26.742Z,3.55
2018-05-13T19:35:54.914Z,3.90
2018-05-13T19:38:23.123Z,4.60
2018-05-13T19:40:51.304Z,10.43
2018-05-13T19:43:19.502Z,6.70
2018-05-13T19:45:47.583Z,5.03
2018-05-13T19:48:15.792Z,6.45
2018-05-13T19:50:43.885Z,4.28
2018-05-13T19:53:12.100Z,6.50
2018-05-13T19:55:40.284Z,4.55
2018-05-13T19:58:08.562Z,5.30
2018-05-13T20:00:36.660Z,4.40
2018-05-13T20:03:05.149Z,4.50
2018-05-13T20:05:33.360Z,4.70
2018-05-13T20:08:01.557Z,5.18
2018-05-13T20:10:29.837Z,4.87
2018-05-13T20:12:58.037Z,4.20
2018-05-13T20:15:26.215Z,5.03
2018-05-13T20:17:54.316Z,6.37
2018-05-13T20:20:22.417Z,4.95
2018-05-13T20:22:50.649Z,5.20
2018-05-13T20:25:18.845Z,4.00
2018-05-13T20:27:47.102Z,5.00
2018-05-13T20:30:15.202Z,4.97
2018-05-13T20:32:43.383Z,5.65
2018-05-13T20:35:11.584Z,4.93
2018-05-13T20:37:39.884Z,6.30
2018-05-13T20:40:08.082Z,6.62
2018-05-13T20:42:36.291Z,5.60
2018-05-13T20:45:04.366Z,5.20
2018-05-13T20:47:32.468Z,5.15
2018-05-13T20:50:00.645Z,4.20
2018-05-13T20:52:28.745Z,4.72
2018-05-13T20:54:57.045Z,5.65
2018-05-13T20:57:25.204Z,8.65
2018-05-13T20:59:53.324Z,5.07
2018-05-13T21:02:21.825Z,8.18
2018-05-13T21:04:50.025Z,6.37
2018-05-13T21:07:18.222Z,4.87
2018-05-13T21:09:46.242Z,5.45
2018-05-13T21:12:14.402Z,7.55
2018-05-13T21:14:42.482Z,5.90
2018-05-13T21:17:10.683Z,4.37
2018-05-13T21:19:38.882Z,4.90
2018-05-13T21:22:06.979Z,7.30
2018-05-13T21:24:35.350Z,4.90
2018-05-13T21:27:03.565Z,5.47
2018-05-13T21:29:31.765Z,5.18
2018-05-13T21:31:59.945Z,5.75
2018-05-13T21:34:28.244Z,5.47
2018-05-13T21:36:56.344Z,7.53
2018-05-13T21:39:24.654Z,5.10
2018-05-13T21:41:52.947Z,6.10
2018-05-13T21:44:21.144Z,5.70
2018-05-13T21:46:49.289Z,5.85
2018-05-13T21:49:17.423Z,5.40
2018-05-13T21:51:45.718Z,5.28
2018-05-13T21:54:13.912Z,6.07
2018-05-13T21:56:42.210Z,4.72
2018-05-13T21:59:10.502Z,5.20
2018-05-13T22:01:38.805Z,6.00
2018-05-13T22:04:06.885Z,5.62
2018-05-13T22:06:34.988Z,6.32
2018-05-13T22:09:03.167Z,6.15
2018-05-13T22:11:31.367Z,6.25
2018-05-13T22:13:59.466Z,5.37
2018-05-13T22:16:27.650Z,6.03
2018-05-13T22:18:55.854Z,4.85
2018-05-13T22:21:24.046Z,6.78
2018-05-13T22:23:52.247Z,5.53
2018-05-13T22:26:20.322Z,6.87
2018-05-13T22:28:48.532Z,6.18
2018-05-13T22:31:16.926Z,7.10
2018-05-13T22:33:45.125Z,6.28
2018-05-13T22:36:13.244Z,5.40
2018-05-13T22:38:41.510Z,9.50
2018-05-13T22:41:09.905Z,5.45
2018-05-13T22:43:38.211Z,9.73
2018-05-13T22:46:06.401Z,5.28
2018-05-13T22:48:34.583Z,6.00
2018-05-13T22:51:02.696Z,6.97
2018-05-13T22:53:30.886Z,6.03
2018-05-13T22:55:58.965Z,6.10
2018-05-13T22:58:28.948Z,5.85
2018-05-13T23:00:57.106Z,5.62
2018-05-13T23:03:25.187Z,5.25
2018-05-13T23:05:53.388Z,6.00
2018-05-13T23:08:21.485Z,9.40
2018-05-13T23:10:49.768Z,7.18
2018-05-13T23:13:18.171Z,6.97
2018-05-13T23:15:46.404Z,6.60
2018-05-13T23:18:14.566Z,6.15
2018-05-13T23:20:42.862Z,5.65
2018-05-13T23:23:11.154Z,5.40
2018-05-13T23:25:39.446Z,5.43
2018-05-13T23:28:07.651Z,5.28
2018-05-13T23:30:35.844Z,5.35
2018-05-13T23:33:03.948Z,4.60
2018-05-13T23:35:32.130Z,6.12
2018-05-13T23:38:00.217Z,7.05
2018-05-13T23:40:28.427Z,5.12
2018-05-13T23:42:56.512Z,6.25
2018-05-13T23:45:24.705Z,6.40
2018-05-13T23:47:52.884Z,7.22
2018-05-13T23:50:21.085Z,8.07
2018-05-13T23:52:49.387Z,4.90
2018-05-13T23:55:17.689Z,5.80
2018-05-13T23:57:45.785Z,7.05
